Etusivu
METAR-TAF:

METAR-TAF

Lentoasemat :

Eagle River Union Airport

Eagle River, Wisconsin, Yhdysvallat

Leveyspiiri: 45-55-54N, Pituuspiiri: 089-16-09W, korkeus merenpinnasta: 501 m

Tämänhetkinen sää

Tämä raportti tehtiin 27 minuuttia sitten, kello 04.55 UTC
tyyntä
Lämpötila 13°C
Kosteus 82%
Ilmanpaine 1020 hPa
Näkyvyys: 16.1 km
selkeää

METAR: KEGV 220455Z AUTO 00000KT 10SM CLR 13/10 A3011 RMK AO2 T01290104

Aika: 00:22 (05:22 UTC)


TAF: puuttuu

Säähavainnot ja -ennusteet yli 4000 lentoasemalta (METAR- ja TAF-raportit).

Käytössä olevat sääasemat on merkitty karttaan keltaisilla ja punaisilla pisteillä.

Aseta hiiri pisteen päälle nähdäksesi sääaseman nimen.

Klikkaa sitten nähdäksesi säähavainnot ja -ennusteet.

Kartan vaihtaminen: klikkaa mustalla rastilla varustettuja vihreitä pisteitä, niin voit zoomata sisään; viivalla varustettua vihreää pistettä, niin voit zoomata ulos tai vihreitä nuolia, niin pääset viereisille kartoille.


METAR-TAF: